Time;durP1;ratioP1;P1;durP2;ratioP2;P2;SDS_P1;SDS_P2;PMS_P1;PMS_P2;Temp;Humidity;BMP_temperature;BMP_pressure;BME280_temperature;BME280_humidity;BME280_pressure;Samples;Min_cycle;Max_cycle;Signal;HPM_P1;HPM_P2
2021/10/16 00:02:09;;;;;;;39.00;25.27;;;;;;;;;;6219766;28;20122;-67
2021/10/16 00:05:10;;;;;;;38.95;25.92;;;;;;;;;;6228180;28;20124;-73
2021/10/16 00:08:12;;;;;;;39.95;26.23;;;;;;;;;;6231091;28;20187;-67
2021/10/16 00:11:14;;;;;;;36.75;25.65;;;;;;;;;;6224534;28;20049;-68
2021/10/16 00:14:17;;;;;;;41.15;26.02;;;;;;;;;;6234505;28;20047;-67
2021/10/16 00:17:18;;;;;;;37.85;26.05;;;;;;;;;;6215668;28;20478;-68
2021/10/16 00:20:20;;;;;;;41.72;27.35;;;;;;;;;;6227312;28;20457;-68
2021/10/16 00:23:21;;;;;;;42.78;25.70;;;;;;;;;;6234009;28;20417;-68
2021/10/16 00:26:23;;;;;;;39.40;25.98;;;;;;;;;;6226414;28;20187;-68
2021/10/16 00:29:26;;;;;;;37.78;26.15;;;;;;;;;;6242919;28;20046;-71
2021/10/16 00:32:27;;;;;;;41.53;26.45;;;;;;;;;;6222610;28;20071;-69
2021/10/16 00:35:29;;;;;;;42.95;26.02;;;;;;;;;;6233568;28;20037;-76
2021/10/16 00:38:31;;;;;;;35.10;25.40;;;;;;;;;;6241501;28;20139;-68
2021/10/16 00:41:32;;;;;;;39.83;25.92;;;;;;;;;;6232881;28;20115;-68
2021/10/16 00:44:36;;;;;;;37.47;25.45;;;;;;;;;;6240821;28;20069;-69
2021/10/16 00:47:38;;;;;;;35.88;25.50;;;;;;;;;;6225895;28;20053;-68
2021/10/16 00:50:39;;;;;;;41.47;27.13;;;;;;;;;;6229305;28;20077;-68
2021/10/16 00:53:41;;;;;;;40.42;27.38;;;;;;;;;;6235105;28;20111;-69
2021/10/16 00:56:44;;;;;;;46.80;29.77;;;;;;;;;;6226823;28;20059;-69
2021/10/16 00:59:47;;;;;;;46.92;31.10;;;;;;;;;;6237813;28;20184;-68
2021/10/16 01:02:50;;;;;;;45.92;29.83;;;;;;;;;;6211058;28;20056;-69
2021/10/16 01:05:51;;;;;;;46.53;29.15;;;;;;;;;;6222412;28;20136;-69
2021/10/16 01:08:55;;;;;;;50.30;29.20;;;;;;;;;;6234588;28;20057;-73
2021/10/16 01:11:57;;;;;;;43.15;30.73;;;;;;;;;;6223822;28;20069;-71
2021/10/16 01:15:02;;;;;;;45.90;31.83;;;;;;;;;;6238873;28;20045;-69
2021/10/16 01:18:04;;;;;;;47.83;32.08;;;;;;;;;;6218120;28;20046;-68
2021/10/16 01:21:08;;;;;;;51.08;33.67;;;;;;;;;;6225714;28;20461;-68
2021/10/16 01:24:10;;;;;;;52.33;35.10;;;;;;;;;;6236734;28;20489;-69
2021/10/16 01:27:12;;;;;;;50.05;35.40;;;;;;;;;;6225518;28;20501;-69
2021/10/16 01:30:17;;;;;;;50.38;35.40;;;;;;;;;;6224652;28;20724;-69
2021/10/16 01:33:18;;;;;;;53.30;37.53;;;;;;;;;;6226782;28;20045;-73
2021/10/16 01:36:22;;;;;;;53.83;39.00;;;;;;;;;;6223593;28;20113;-68
2021/10/16 01:39:23;;;;;;;58.40;41.43;;;;;;;;;;6234328;28;20053;-68
2021/10/16 01:42:25;;;;;;;55.10;41.00;;;;;;;;;;6227595;28;20514;-68
2021/10/16 01:45:27;;;;;;;52.72;39.75;;;;;;;;;;6224921;28;21071;-68
2021/10/16 01:48:28;;;;;;;55.58;39.08;;;;;;;;;;6231326;28;20179;-69
2021/10/16 01:51:31;;;;;;;64.70;45.10;;;;;;;;;;6225635;28;20124;-69
2021/10/16 01:54:33;;;;;;;63.72;41.70;;;;;;;;;;6234122;28;20227;-68
2021/10/16 01:57:34;;;;;;;52.85;38.42;;;;;;;;;;6221623;28;20053;-69
2021/10/16 02:00:36;;;;;;;55.50;39.53;;;;;;;;;;6223402;28;20132;-69
2021/10/16 02:03:38;;;;;;;52.13;37.72;;;;;;;;;;6230962;28;20140;-68
2021/10/16 02:06:42;;;;;;;47.45;34.28;;;;;;;;;;6224827;28;20058;-68
2021/10/16 02:09:43;;;;;;;53.53;35.70;;;;;;;;;;6234242;28;20110;-68
2021/10/16 02:12:45;;;;;;;45.17;33.22;;;;;;;;;;6226657;28;20051;-68
2021/10/16 02:15:47;;;;;;;42.95;30.95;;;;;;;;;;6221415;28;20191;-67
2021/10/16 02:18:48;;;;;;;43.53;31.02;;;;;;;;;;6234172;28;20049;-68
2021/10/16 02:21:51;;;;;;;45.65;28.63;;;;;;;;;;6225450;28;20041;-69
2021/10/16 02:24:53;;;;;;;41.70;28.73;;;;;;;;;;6235714;28;20119;-69
2021/10/16 02:27:54;;;;;;;46.45;30.60;;;;;;;;;;6228537;28;20077;-69
2021/10/16 02:30:56;;;;;;;43.85;28.60;;;;;;;;;;6226232;28;20439;-68
2021/10/16 02:33:58;;;;;;;39.20;26.38;;;;;;;;;;6233605;28;20180;-69
2021/10/16 02:37:01;;;;;;;38.97;25.48;;;;;;;;;;6227627;28;20135;-68
2021/10/16 02:40:03;;;;;;;35.88;23.95;;;;;;;;;;6234421;28;20068;-68
2021/10/16 02:43:05;;;;;;;33.45;23.98;;;;;;;;;;6226136;28;20485;-69
2021/10/16 02:46:07;;;;;;;37.28;25.00;;;;;;;;;;6223656;28;20049;-67
2021/10/16 02:49:08;;;;;;;33.90;23.65;;;;;;;;;;6234047;28;20050;-69
2021/10/16 02:52:11;;;;;;;39.25;26.10;;;;;;;;;;6226608;28;20049;-67
2021/10/16 02:55:13;;;;;;;31.65;23.73;;;;;;;;;;6229915;28;20045;-71
2021/10/16 02:58:14;;;;;;;39.10;25.70;;;;;;;;;;6235139;28;20049;-68
2021/10/16 03:01:16;;;;;;;38.30;25.70;;;;;;;;;;6221845;28;20122;-73
2021/10/16 03:04:17;;;;;;;35.55;24.77;;;;;;;;;;6234709;28;20041;-71
2021/10/16 03:07:20;;;;;;;35.67;24.88;;;;;;;;;;6230425;28;20099;-68
2021/10/16 03:10:22;;;;;;;36.72;25.33;;;;;;;;;;6230617;28;20132;-73
2021/10/16 03:13:24;;;;;;;36.00;24.70;;;;;;;;;;6238178;28;20136;-68
2021/10/16 03:16:25;;;;;;;34.92;25.20;;;;;;;;;;6223567;28;20041;-68
2021/10/16 03:19:27;;;;;;;36.83;24.15;;;;;;;;;;6235879;28;20056;-68
2021/10/16 03:22:30;;;;;;;41.28;24.77;;;;;;;;;;6228764;28;20128;-69
2021/10/16 03:25:31;;;;;;;37.72;25.17;;;;;;;;;;6228960;28;21124;-71
2021/10/16 03:28:33;;;;;;;42.63;26.27;;;;;;;;;;6237426;28;20042;-68
2021/10/16 03:31:35;;;;;;;40.10;24.20;;;;;;;;;;6224814;28;20107;-70
2021/10/16 03:34:36;;;;;;;36.63;25.00;;;;;;;;;;6240002;28;20054;-70
2021/10/16 03:37:39;;;;;;;33.40;23.75;;;;;;;;;;6226231;28;20053;-69
2021/10/16 03:40:41;;;;;;;37.95;25.23;;;;;;;;;;6229343;28;20853;-68
2021/10/16 03:43:43;;;;;;;40.13;25.83;;;;;;;;;;6235662;28;20054;-71
2021/10/16 03:46:44;;;;;;;42.17;26.92;;;;;;;;;;6223681;28;20042;-69
2021/10/16 03:49:46;;;;;;;41.88;27.05;;;;;;;;;;6240192;28;20519;-68
2021/10/16 03:52:49;;;;;;;38.15;26.30;;;;;;;;;;6228018;28;20506;-69
2021/10/16 03:55:50;;;;;;;43.70;27.67;;;;;;;;;;6230162;28;20115;-68
2021/10/16 03:58:52;;;;;;;45.28;29.45;;;;;;;;;;6239450;28;20151;-68
2021/10/16 04:01:54;;;;;;;40.13;28.58;;;;;;;;;;6228261;28;20049;-68
2021/10/16 04:04:55;;;;;;;42.05;28.42;;;;;;;;;;6243614;28;20136;-74
2021/10/16 04:07:58;;;;;;;40.00;27.48;;;;;;;;;;6232685;28;20037;-68
2021/10/16 04:11:00;;;;;;;39.30;26.60;;;;;;;;;;6232796;28;20965;-69
2021/10/16 04:14:01;;;;;;;47.05;27.15;;;;;;;;;;6241572;28;20648;-68
2021/10/16 04:17:03;;;;;;;40.58;26.85;;;;;;;;;;6225018;28;20108;-68
2021/10/16 04:20:06;;;;;;;43.63;28.27;;;;;;;;;;6238998;28;20055;-74
2021/10/16 04:23:09;;;;;;;38.42;26.48;;;;;;;;;;6235950;28;20038;-69
2021/10/16 04:26:11;;;;;;;39.22;26.17;;;;;;;;;;6232156;28;20045;-70
2021/10/16 04:29:13;;;;;;;44.17;26.85;;;;;;;;;;6248100;28;20136;-68
2021/10/16 04:32:14;;;;;;;39.83;26.02;;;;;;;;;;6224964;28;20132;-74
2021/10/16 04:35:16;;;;;;;41.33;27.05;;;;;;;;;;6231767;28;20178;-73
2021/10/16 04:38:19;;;;;;;40.05;27.27;;;;;;;;;;6235567;28;20038;-70
2021/10/16 04:41:20;;;;;;;43.95;26.95;;;;;;;;;;6238916;28;20100;-70
2021/10/16 04:44:22;;;;;;;41.88;27.30;;;;;;;;;;6245861;28;20091;-70
2021/10/16 04:47:23;;;;;;;44.70;27.00;;;;;;;;;;6227809;28;20172;-71
2021/10/16 04:50:25;;;;;;;39.58;26.60;;;;;;;;;;6230792;28;21783;-70
2021/10/16 04:53:28;;;;;;;43.78;26.80;;;;;;;;;;6237853;28;20072;-67
2021/10/16 04:56:30;;;;;;;38.70;25.50;;;;;;;;;;6231745;28;20128;-69
2021/10/16 04:59:31;;;;;;;45.53;25.10;;;;;;;;;;6216594;28;20122;-67
2021/10/16 05:02:33;;;;;;;44.38;28.08;;;;;;;;;;6223370;28;20037;-72
2021/10/16 05:05:36;;;;;;;37.67;27.35;;;;;;;;;;6225500;28;20179;-70
2021/10/16 05:08:40;;;;;;;39.25;26.73;;;;;;;;;;6241379;28;20057;-68
2021/10/16 05:11:42;;;;;;;39.70;26.20;;;;;;;;;;6229437;28;20057;-70
2021/10/16 05:14:43;;;;;;;38.95;25.67;;;;;;;;;;6240092;28;20042;-74
2021/10/16 05:17:45;;;;;;;39.78;26.42;;;;;;;;;;6225442;28;20180;-70
2021/10/16 05:20:47;;;;;;;42.42;27.02;;;;;;;;;;6228204;28;20057;-69
2021/10/16 05:23:49;;;;;;;45.75;27.30;;;;;;;;;;6238191;28;20142;-69
2021/10/16 05:26:51;;;;;;;42.28;25.88;;;;;;;;;;6229798;28;20511;-69
2021/10/16 05:29:53;;;;;;;41.42;26.67;;;;;;;;;;6241199;28;20049;-70
2021/10/16 05:32:54;;;;;;;43.63;26.52;;;;;;;;;;6224199;28;20119;-72
2021/10/16 05:35:56;;;;;;;51.53;27.77;;;;;;;;;;6225619;28;20044;-69
2021/10/16 05:38:59;;;;;;;45.03;26.85;;;;;;;;;;6238785;28;20544;-70
2021/10/16 05:42:01;;;;;;;41.40;26.60;;;;;;;;;;6229143;28;20057;-74
2021/10/16 05:45:03;;;;;;;41.83;27.17;;;;;;;;;;6242893;28;20052;-72
2021/10/16 05:48:05;;;;;;;41.28;27.20;;;;;;;;;;6224824;28;20055;-68
2021/10/16 05:51:06;;;;;;;42.08;26.70;;;;;;;;;;6230716;28;20249;-69
2021/10/16 05:54:09;;;;;;;45.40;27.05;;;;;;;;;;6240680;28;20430;-69
2021/10/16 05:57:11;;;;;;;39.75;26.77;;;;;;;;;;6229548;28;20386;-69
2021/10/16 06:00:14;;;;;;;45.88;26.83;;;;;;;;;;6235073;28;20091;-74
2021/10/16 06:03:16;;;;;;;40.88;25.83;;;;;;;;;;6233986;28;20155;-69
2021/10/16 06:06:17;;;;;;;39.10;26.00;;;;;;;;;;6228958;28;20712;-69
2021/10/16 06:09:20;;;;;;;38.45;26.90;;;;;;;;;;6239692;28;20041;-69
2021/10/16 06:12:22;;;;;;;41.47;26.88;;;;;;;;;;6228636;28;20053;-69
2021/10/16 06:15:23;;;;;;;40.08;26.75;;;;;;;;;;6231263;28;20589;-70
2021/10/16 06:18:26;;;;;;;38.85;25.60;;;;;;;;;;6228969;28;20110;-69
2021/10/16 06:21:27;;;;;;;37.35;24.35;;;;;;;;;;6227287;28;20615;-69
2021/10/16 06:24:30;;;;;;;45.72;26.42;;;;;;;;;;6241014;28;20052;-68
2021/10/16 06:27:32;;;;;;;37.67;25.27;;;;;;;;;;6231082;28;20075;-68
2021/10/16 06:30:34;;;;;;;38.25;25.00;;;;;;;;;;6224590;28;20499;-70
2021/10/16 06:33:35;;;;;;;46.78;26.25;;;;;;;;;;6228627;28;20072;-74
2021/10/16 06:36:37;;;;;;;40.35;25.08;;;;;;;;;;6226466;28;20052;-70
2021/10/16 06:39:40;;;;;;;39.75;24.50;;;;;;;;;;6236052;28;20057;-69
2021/10/16 06:42:41;;;;;;;36.20;24.88;;;;;;;;;;6225796;28;20098;-69
2021/10/16 06:45:43;;;;;;;35.67;24.33;;;;;;;;;;6225177;28;20137;-73
2021/10/16 06:48:52;;;;;;;32.08;23.17;;;;;;;;;;6298764;27;21195;-68
2021/10/16 06:51:54;;;;;;;35.60;23.42;;;;;;;;;;6226134;28;20495;-71
2021/10/16 06:54:55;;;;;;;38.30;24.77;;;;;;;;;;6233266;28;20145;-68
2021/10/16 06:57:56;;;;;;;36.03;23.73;;;;;;;;;;6236590;28;20041;-68
2021/10/16 07:00:58;;;;;;;34.72;23.27;;;;;;;;;;6234893;28;20124;-69
2021/10/16 07:04:00;;;;;;;35.10;24.15;;;;;;;;;;6242478;28;20055;-68
2021/10/16 07:07:02;;;;;;;34.40;24.27;;;;;;;;;;6233119;28;20061;-68
2021/10/16 07:10:03;;;;;;;34.72;23.48;;;;;;;;;;6241837;28;20416;-70
2021/10/16 07:13:05;;;;;;;35.10;23.10;;;;;;;;;;6234621;28;20422;-69
2021/10/16 07:16:06;;;;;;;32.22;23.13;;;;;;;;;;6230510;28;20057;-69
2021/10/16 07:19:09;;;;;;;33.00;23.42;;;;;;;;;;6242237;28;20049;-69
2021/10/16 07:22:11;;;;;;;31.42;22.85;;;;;;;;;;6234049;28;20049;-69
2021/10/16 07:25:12;;;;;;;34.55;24.08;;;;;;;;;;6235549;28;20111;-71
2021/10/16 07:28:13;;;;;;;34.45;22.88;;;;;;;;;;6237257;28;20230;-69
2021/10/16 07:31:15;;;;;;;32.13;24.13;;;;;;;;;;6231489;28;20720;-69
2021/10/16 07:34:18;;;;;;;33.65;24.42;;;;;;;;;;6237915;28;20091;-69
2021/10/16 07:37:19;;;;;;;38.83;24.80;;;;;;;;;;6236409;28;20045;-69
2021/10/16 07:40:21;;;;;;;35.67;24.85;;;;;;;;;;6257016;28;20469;-72
2021/10/16 07:43:24;;;;;;;35.97;25.52;;;;;;;;;;6270359;28;20098;-69
2021/10/16 07:46:25;;;;;;;38.70;26.13;;;;;;;;;;6249736;28;20057;-69
2021/10/16 07:49:28;;;;;;;34.53;25.95;;;;;;;;;;6261674;28;20084;-70
2021/10/16 07:52:29;;;;;;;34.13;25.60;;;;;;;;;;6255764;28;20136;-70
2021/10/16 07:55:30;;;;;;;34.67;25.58;;;;;;;;;;6258041;28;20179;-72
2021/10/16 07:58:32;;;;;;;38.17;26.55;;;;;;;;;;6257580;28;20136;-69
2021/10/16 08:01:33;;;;;;;33.30;25.42;;;;;;;;;;6237480;28;20080;-73
2021/10/16 08:04:36;;;;;;;39.08;26.77;;;;;;;;;;6246382;28;20067;-70
2021/10/16 08:07:37;;;;;;;37.50;26.95;;;;;;;;;;6242495;28;20360;-71
2021/10/16 08:10:39;;;;;;;35.97;26.25;;;;;;;;;;6241764;28;20045;-71
2021/10/16 08:13:40;;;;;;;36.55;26.75;;;;;;;;;;6252944;28;20063;-67
2021/10/16 08:16:41;;;;;;;35.28;26.83;;;;;;;;;;6234978;28;20190;-70
2021/10/16 08:19:44;;;;;;;40.10;27.77;;;;;;;;;;6243844;28;20041;-70
2021/10/16 08:22:46;;;;;;;36.53;28.05;;;;;;;;;;6238271;28;20095;-71
2021/10/16 08:25:47;;;;;;;36.55;26.85;;;;;;;;;;6242175;28;20060;-71
2021/10/16 08:28:48;;;;;;;36.25;27.85;;;;;;;;;;6255922;28;20347;-70
2021/10/16 08:31:50;;;;;;;38.78;28.98;;;;;;;;;;6236339;28;20877;-70
2021/10/16 08:34:53;;;;;;;31.20;26.67;;;;;;;;;;6253643;28;20071;-70
2021/10/16 08:37:54;;;;;;;43.73;27.90;;;;;;;;;;6241959;28;20124;-66
2021/10/16 08:40:55;;;;;;;40.85;29.73;;;;;;;;;;6252341;28;20183;-65
2021/10/16 08:43:57;;;;;;;38.50;28.73;;;;;;;;;;6256822;28;20393;-65
2021/10/16 08:46:59;;;;;;;38.05;29.25;;;;;;;;;;6240463;28;20057;-65
2021/10/16 08:50:02;;;;;;;103.50;33.63;;;;;;;;;;6249306;28;20042;-66
2021/10/16 08:53:03;;;;;;;41.50;29.17;;;;;;;;;;6239910;28;20045;-69
2021/10/16 08:56:05;;;;;;;70.95;31.10;;;;;;;;;;6241709;28;20055;-64
2021/10/16 08:59:06;;;;;;;44.40;30.35;;;;;;;;;;6249679;28;20050;-67
2021/10/16 09:02:09;;;;;;;39.45;29.25;;;;;;;;;;6231801;28;20045;-68
2021/10/16 09:05:13;;;;;;;41.67;32.37;;;;;;;;;;6240757;28;20133;-68
2021/10/16 09:08:27;;;;;;;44.90;29.98;;;;;;;;;;6244201;28;20101;-67
2021/10/16 09:11:29;;;;;;;40.83;31.08;;;;;;;;;;6243741;28;20048;-67
2021/10/16 09:14:32;;;;;;;46.08;33.20;;;;;;;;;;6250059;28;20100;-66
2021/10/16 09:17:33;;;;;;;44.70;30.13;;;;;;;;;;6231314;28;20948;-67
2021/10/16 09:20:36;;;;;;;39.40;31.55;;;;;;;;;;6236563;28;20168;-66
2021/10/16 09:23:38;;;;;;;36.53;30.60;;;;;;;;;;6245780;28;20100;-66
2021/10/16 09:26:40;;;;;;;37.00;31.33;;;;;;;;;;6238545;28;20050;-70
2021/10/16 09:29:43;;;;;;;40.00;31.13;;;;;;;;;;6242928;28;20063;-69
2021/10/16 09:32:55;;;;;;;37.55;31.52;;;;;;;;;;6228151;28;20045;-71
2021/10/16 09:35:57;;;;;;;39.72;32.28;;;;;;;;;;6232923;28;20053;-68
2021/10/16 09:38:59;;;;;;;42.10;30.80;;;;;;;;;;6246517;28;20406;-66
2021/10/16 09:42:01;;;;;;;40.45;31.85;;;;;;;;;;6234019;28;20565;-68
2021/10/16 09:45:04;;;;;;;37.40;30.58;;;;;;;;;;6245812;28;20586;-67
2021/10/16 09:48:09;;;;;;;37.50;30.17;;;;;;;;;;6228370;28;20049;-68
2021/10/16 09:51:14;;;;;;;36.90;29.05;;;;;;;;;;6232515;28;20049;-65
2021/10/16 09:54:16;;;;;;;34.53;28.92;;;;;;;;;;6247923;28;20049;-66
2021/10/16 09:57:19;;;;;;;34.97;30.05;;;;;;;;;;6235901;28;20508;-68
2021/10/16 10:00:21;;;;;;;37.97;30.55;;;;;;;;;;6236809;28;20049;-70
2021/10/16 10:03:24;;;;;;;40.78;31.55;;;;;;;;;;6238896;28;20552;-67
2021/10/16 10:06:27;;;;;;;35.30;30.83;;;;;;;;;;6235124;28;20060;-68
2021/10/16 10:09:29;;;;;;;36.53;30.40;;;;;;;;;;6256384;28;20588;-68
2021/10/16 10:12:30;;;;;;;36.83;30.67;;;;;;;;;;6243314;28;20120;-69
2021/10/16 10:15:33;;;;;;;36.00;30.02;;;;;;;;;;6235347;28;20033;-68
2021/10/16 10:21:56;;;;;;;32.08;26.25;;;;;;;;;;6239344;28;20397;-68
2021/10/16 10:24:57;;;;;;;37.22;29.30;;;;;;;;;;6249929;28;20048;-67
2021/10/16 10:27:59;;;;;;;39.17;30.02;;;;;;;;;;6236083;28;20529;-68
2021/10/16 10:31:00;;;;;;;30.73;27.05;;;;;;;;;;6227542;28;20045;-69
2021/10/16 10:34:02;;;;;;;41.00;30.08;;;;;;;;;;6239840;28;20092;-68
2021/10/16 10:37:07;;;;;;;32.90;28.38;;;;;;;;;;6234019;28;20134;-68
2021/10/16 10:40:18;;;;;;;30.45;27.15;;;;;;;;;;6239556;28;20183;-70
2021/10/16 10:43:37;;;;;;;31.20;26.02;;;;;;;;;;6242017;28;20102;-66
2021/10/16 10:46:38;;;;;;;34.55;28.02;;;;;;;;;;6230428;28;20052;-66
2021/10/16 10:49:41;;;;;;;31.33;28.05;;;;;;;;;;6243307;28;20175;-67
2021/10/16 10:52:59;;;;;;;33.17;26.58;;;;;;;;;;6238054;28;20060;-67
2021/10/16 10:56:02;;;;;;;28.70;24.88;;;;;;;;;;6233068;28;20049;-67
2021/10/16 10:59:07;;;;;;;28.05;25.05;;;;;;;;;;6250160;28;20148;-66
2021/10/16 11:02:08;;;;;;;29.90;24.60;;;;;;;;;;6235175;28;20064;-67
2021/10/16 11:05:28;;;;;;;31.55;25.83;;;;;;;;;;6246151;28;20057;-67
2021/10/16 11:08:29;;;;;;;25.48;22.33;;;;;;;;;;6248633;28;20065;-67
2021/10/16 11:11:45;;;;;;;26.63;23.83;;;;;;;;;;6243539;28;20084;-66
2021/10/16 11:14:46;;;;;;;28.58;25.42;;;;;;;;;;6251022;28;20088;-66
2021/10/16 11:17:49;;;;;;;26.92;24.13;;;;;;;;;;6234787;28;20452;-67
2021/10/16 11:20:50;;;;;;;27.38;24.38;;;;;;;;;;6241288;28;20057;-67
2021/10/16 11:23:51;;;;;;;28.93;24.30;;;;;;;;;;6254790;28;20051;-66
2021/10/16 11:26:55;;;;;;;27.38;24.48;;;;;;;;;;6238111;28;20100;-65
2021/10/16 11:29:56;;;;;;;32.95;24.38;;;;;;;;;;6244300;28;20594;-68
2021/10/16 11:33:03;;;;;;;29.57;25.83;;;;;;;;;;6223748;28;20562;-67
2021/10/16 11:36:04;;;;;;;27.73;24.48;;;;;;;;;;6234376;28;20474;-66
2021/10/16 11:39:06;;;;;;;27.20;24.30;;;;;;;;;;6246925;28;20056;-67
2021/10/16 11:42:09;;;;;;;28.75;24.33;;;;;;;;;;6238428;28;20041;-68
2021/10/16 11:45:11;;;;;;;28.55;24.02;;;;;;;;;;6253459;28;20049;-68
2021/10/16 11:48:13;;;;;;;30.20;26.48;;;;;;;;;;6255614;28;20401;-66
2021/10/16 11:51:15;;;;;;;26.98;24.17;;;;;;;;;;6246955;28;20053;-68
2021/10/16 11:54:17;;;;;;;27.37;23.70;;;;;;;;;;6263125;28;20448;-66
2021/10/16 11:57:29;;;;;;;25.63;22.48;;;;;;;;;;6236887;28;20136;-65
2021/10/16 12:00:30;;;;;;;25.10;22.10;;;;;;;;;;6253639;28;20126;-66
2021/10/16 12:03:33;;;;;;;26.15;21.45;;;;;;;;;;6259813;28;20125;-65
2021/10/16 12:06:34;;;;;;;23.83;21.15;;;;;;;;;;6250224;28;20238;-67
2021/10/16 12:09:36;;;;;;;23.98;21.38;;;;;;;;;;6261181;28;20115;-65
2021/10/16 12:12:38;;;;;;;26.80;18.98;;;;;;;;;;6246813;28;20124;-67
2021/10/16 12:15:41;;;;;;;20.58;18.20;;;;;;;;;;6243848;28;20132;-66
2021/10/16 12:18:49;;;;;;;24.08;19.23;;;;;;;;;;6261233;28;20095;-66
2021/10/16 12:21:51;;;;;;;22.60;19.13;;;;;;;;;;6236666;28;20053;-65
2021/10/16 12:24:59;;;;;;;22.23;18.30;;;;;;;;;;6266694;28;20611;-65
2021/10/16 12:28:03;;;;;;;23.92;19.13;;;;;;;;;;6243766;28;20045;-66
2021/10/16 12:31:06;;;;;;;20.83;18.50;;;;;;;;;;6232157;28;20077;-66
2021/10/16 12:34:09;;;;;;;26.40;18.95;;;;;;;;;;6247125;28;20056;-65
2021/10/16 12:37:10;;;;;;;;;;;;;;;;;;6248988;28;20057;-67
2021/10/16 12:40:13;;;;;;;26.90;20.75;;;;;;;;;;6239175;28;19949;-68
2021/10/16 12:43:14;;;;;;;;;;;;;;;;;;6253038;28;20049;-65
2021/10/16 12:46:25;;;;;;;24.17;19.63;;;;;;;;;;6237255;28;20290;-66
2021/10/16 12:49:31;;;;;;;23.05;20.63;;;;;;;;;;6250547;28;20138;-65
2021/10/16 12:52:36;;;;;;;23.30;20.17;;;;;;;;;;6234728;28;20490;-65
2021/10/16 12:55:38;;;;;;;22.63;19.40;;;;;;;;;;6238441;28;20132;-65
2021/10/16 12:58:39;;;;;;;22.35;19.83;;;;;;;;;;6247460;28;20497;-65
2021/10/16 13:01:42;;;;;;;24.25;21.50;;;;;;;;;;6235581;28;20044;-65
2021/10/16 13:04:44;;;;;;;23.23;18.25;;;;;;;;;;6248593;28;20049;-65
2021/10/16 13:07:45;;;;;;;24.33;20.05;;;;;;;;;;6238502;28;20048;-65
2021/10/16 13:10:47;;;;;;;20.77;18.60;;;;;;;;;;6243469;28;20125;-66
2021/10/16 13:13:48;;;;;;;26.25;20.17;;;;;;;;;;6256562;28;20048;-66
2021/10/16 13:16:51;;;;;;;25.45;22.38;;;;;;;;;;6233148;28;20059;-66
2021/10/16 13:19:53;;;;;;;;;;;;;;;;;;6259686;28;20059;-66
2021/10/16 13:22:55;;;;;;;25.42;21.38;;;;;;;;;;6230580;28;20070;-65
2021/10/16 13:25:56;;;;;;;24.50;20.13;;;;;;;;;;6234344;28;20516;-65
2021/10/16 13:28:58;;;;;;;24.95;20.05;;;;;;;;;;6245396;28;20134;-65
2021/10/16 13:32:00;;;;;;;27.50;22.83;;;;;;;;;;6240537;28;20536;-68
2021/10/16 13:35:01;;;;;;;;;;;;;;;;;;6252680;28;20124;-66
2021/10/16 13:38:05;;;;;;;25.45;21.45;;;;;;;;;;6250568;28;20447;-65
2021/10/16 13:41:06;;;;;;;21.85;18.67;;;;;;;;;;6233410;28;20053;-65
2021/10/16 13:44:08;;;;;;;26.05;20.35;;;;;;;;;;6257034;28;20559;-67
2021/10/16 13:47:11;;;;;;;23.35;18.45;;;;;;;;;;6227926;28;20061;-65
2021/10/16 13:50:13;;;;;;;20.88;17.55;;;;;;;;;;6236251;28;20061;-66
2021/10/16 13:53:14;;;;;;;21.73;17.55;;;;;;;;;;6256399;28;20049;-65
2021/10/16 13:56:15;;;;;;;22.10;17.00;;;;;;;;;;6241706;28;20051;-65
2021/10/16 13:59:17;;;;;;;23.23;17.05;;;;;;;;;;6260323;28;20068;-67
2021/10/16 14:02:20;;;;;;;25.77;19.30;;;;;;;;;;6230007;28;20049;-65
2021/10/16 14:05:21;;;;;;;23.20;18.40;;;;;;;;;;6251865;28;20051;-66
2021/10/16 14:08:22;;;;;;;22.25;16.30;;;;;;;;;;6257909;28;20411;-65
2021/10/16 14:11:24;;;;;;;22.30;18.05;;;;;;;;;;6256075;28;20053;-65
2021/10/16 14:14:25;;;;;;;23.30;18.33;;;;;;;;;;6273299;28;20049;-65
2021/10/16 14:17:28;;;;;;;21.65;17.38;;;;;;;;;;6248025;28;20090;-65
2021/10/16 14:20:31;;;;;;;23.27;19.40;;;;;;;;;;6252530;28;20052;-66
2021/10/16 14:23:33;;;;;;;23.05;18.70;;;;;;;;;;6263010;28;20052;-65
2021/10/16 14:26:34;;;;;;;25.77;19.42;;;;;;;;;;6236255;28;20063;-65
2021/10/16 14:29:35;;;;;;;21.00;17.58;;;;;;;;;;6250599;28;20056;-65
2021/10/16 14:32:38;;;;;;;26.90;21.35;;;;;;;;;;6229483;28;20037;-65
2021/10/16 14:35:40;;;;;;;28.92;20.70;;;;;;;;;;6232578;28;20050;-65
2021/10/16 14:38:41;;;;;;;27.33;21.08;;;;;;;;;;6247463;28;20238;-67
2021/10/16 14:41:42;;;;;;;29.48;23.40;;;;;;;;;;6231385;28;20132;-66
2021/10/16 14:44:44;;;;;;;27.52;22.50;;;;;;;;;;6244636;28;20176;-67
2021/10/16 14:47:47;;;;;;;26.67;22.17;;;;;;;;;;6229947;28;20058;-66
2021/10/16 14:50:48;;;;;;;;;;;;;;;;;;6244431;28;20049;-65
2021/10/16 14:53:49;;;;;;;31.73;25.25;;;;;;;;;;6261493;28;20062;-66
2021/10/16 14:56:51;;;;;;;35.78;25.70;;;;;;;;;;6236131;28;20042;-66
2021/10/16 14:59:52;;;;;;;30.95;24.63;;;;;;;;;;6245289;28;20132;-66
2021/10/16 15:02:55;;;;;;;32.78;24.45;;;;;;;;;;6231828;28;20104;-66
2021/10/16 15:05:56;;;;;;;26.75;20.98;;;;;;;;;;6237287;28;20143;-66
2021/10/16 15:08:58;;;;;;;25.15;19.50;;;;;;;;;;6252746;28;20052;-66
2021/10/16 15:11:59;;;;;;;24.15;19.63;;;;;;;;;;6241634;28;20172;-66
2021/10/16 15:15:01;;;;;;;28.95;22.65;;;;;;;;;;6257270;28;20048;-66
2021/10/16 15:18:03;;;;;;;26.98;20.50;;;;;;;;;;6244094;28;20052;-66
2021/10/16 15:21:05;;;;;;;24.75;20.70;;;;;;;;;;6248700;28;20037;-66
2021/10/16 15:24:06;;;;;;;25.38;21.08;;;;;;;;;;6255210;28;20056;-66
2021/10/16 15:27:07;;;;;;;31.85;23.25;;;;;;;;;;6243568;28;20520;-65
2021/10/16 15:30:10;;;;;;;28.10;22.45;;;;;;;;;;6243564;28;20053;-67
2021/10/16 15:33:12;;;;;;;28.03;21.73;;;;;;;;;;6240695;28;20118;-66
2021/10/16 15:36:14;;;;;;;29.63;21.67;;;;;;;;;;6237343;28;20200;-66
2021/10/16 15:39:15;;;;;;;28.27;21.58;;;;;;;;;;6247519;28;20049;-66
2021/10/16 15:42:18;;;;;;;31.52;22.98;;;;;;;;;;6237770;28;20067;-66
2021/10/16 15:45:19;;;;;;;30.47;23.40;;;;;;;;;;6242631;28;20667;-66
2021/10/16 15:48:24;;;;;;;31.00;22.65;;;;;;;;;;6254463;28;20059;-67
2021/10/16 15:51:26;;;;;;;29.38;22.77;;;;;;;;;;6234774;28;20100;-66
2021/10/16 15:54:28;;;;;;;30.07;22.57;;;;;;;;;;6265197;28;20136;-66
2021/10/16 15:57:29;;;;;;;28.63;22.30;;;;;;;;;;6235314;28;20505;-66
2021/10/16 16:00:30;;;;;;;29.95;22.42;;;;;;;;;;6240266;28;20819;-67
2021/10/16 16:03:34;;;;;;;41.13;24.02;;;;;;;;;;6256129;28;20260;-65
2021/10/16 16:06:35;;;;;;;;;;;;;;;;;;6257411;28;20054;-65
2021/10/16 16:09:37;;;;;;;33.63;23.90;;;;;;;;;;6277354;28;19921;-65
2021/10/16 16:12:39;;;;;;;39.78;26.05;;;;;;;;;;6270798;28;20053;-65
2021/10/16 16:15:40;;;;;;;33.75;24.75;;;;;;;;;;6247675;28;20938;-64
2021/10/16 16:18:43;;;;;;;42.97;26.15;;;;;;;;;;6250542;28;20040;-66
2021/10/16 16:21:45;;;;;;;39.97;25.30;;;;;;;;;;6264675;28;20056;-65
2021/10/16 16:24:47;;;;;;;40.17;26.03;;;;;;;;;;6276688;28;20094;-66
2021/10/16 16:27:48;;;;;;;40.05;26.88;;;;;;;;;;6247273;28;20154;-66
2021/10/16 16:30:49;;;;;;;36.33;26.25;;;;;;;;;;6244637;28;20050;-66
2021/10/16 16:33:52;;;;;;;47.05;27.55;;;;;;;;;;6256707;28;20075;-65
2021/10/16 16:36:53;;;;;;;43.63;26.38;;;;;;;;;;6255667;28;20059;-66
2021/10/16 16:39:55;;;;;;;37.33;26.00;;;;;;;;;;6248974;28;20206;-66
2021/10/16 16:42:56;;;;;;;36.53;26.30;;;;;;;;;;6247087;28;20059;-66
2021/10/16 16:45:58;;;;;;;34.65;24.75;;;;;;;;;;6239109;28;20076;-66
2021/10/16 16:49:01;;;;;;;35.75;23.83;;;;;;;;;;6250580;28;20481;-65
2021/10/16 16:52:02;;;;;;;35.75;25.33;;;;;;;;;;6246288;28;20124;-66
2021/10/16 16:55:06;;;;;;;38.30;25.98;;;;;;;;;;6245433;28;20199;-66
2021/10/16 16:58:08;;;;;;;36.38;25.92;;;;;;;;;;6240012;28;20056;-66
2021/10/16 17:01:09;;;;;;;36.83;25.90;;;;;;;;;;6229310;28;20181;-66
2021/10/16 17:04:12;;;;;;;39.50;26.02;;;;;;;;;;6241930;28;20537;-66
2021/10/16 17:07:13;;;;;;;41.80;26.77;;;;;;;;;;6236603;28;20042;-66
2021/10/16 17:10:14;;;;;;;40.25;26.15;;;;;;;;;;6237062;28;20536;-66
2021/10/16 17:13:17;;;;;;;39.78;26.80;;;;;;;;;;6250184;28;20053;-65
2021/10/16 17:16:18;;;;;;;39.05;26.65;;;;;;;;;;6246741;28;20106;-65
2021/10/16 17:19:21;;;;;;;39.22;26.77;;;;;;;;;;6260313;28;20144;-65
2021/10/16 17:22:23;;;;;;;38.63;25.53;;;;;;;;;;6239729;28;20041;-67
2021/10/16 17:25:24;;;;;;;41.58;26.98;;;;;;;;;;6250235;28;20882;-65
2021/10/16 17:28:26;;;;;;;40.42;26.90;;;;;;;;;;6248761;28;20126;-65
2021/10/16 17:31:27;;;;;;;37.90;26.00;;;;;;;;;;6233455;28;20179;-65
2021/10/16 17:34:30;;;;;;;39.08;26.05;;;;;;;;;;6253392;28;20126;-65
2021/10/16 17:37:31;;;;;;;36.97;26.35;;;;;;;;;;6245904;28;20389;-65
2021/10/16 17:40:33;;;;;;;39.30;26.35;;;;;;;;;;6245489;28;20122;-67
2021/10/16 17:43:34;;;;;;;37.58;24.60;;;;;;;;;;6262587;28;20051;-65
2021/10/16 17:46:36;;;;;;;41.35;26.40;;;;;;;;;;6242199;28;20114;-66